Time;durP1;ratioP1;P1;durP2;ratioP2;P2;SDS_P1;SDS_P2;PMS_P1;PMS_P2;Temp;Humidity;BMP_temperature;BMP_pressure;BME280_temperature;BME280_humidity;BME280_pressure;Samples;Min_cycle;Max_cycle;Signal;HPM_P1;HPM_P2
2022/09/25 00:04:53;;;;;;;3.80;1.75;;;;;;;;;;10476303;28;20052;-78
2022/09/25 00:09:57;;;;;;;1.67;1.13;;;;;;;;;;10471404;28;20577;-78
2022/09/25 00:15:00;;;;;;;2.08;1.40;;;;;;;;;;10505781;28;20059;-78
2022/09/25 00:20:06;;;;;;;2.70;1.48;;;;;;;;;;10505968;28;20131;-78
2022/09/25 00:25:12;;;;;;;1.83;1.50;;;;;;;;;;10523856;28;20067;-78
2022/09/25 00:30:15;;;;;;;4.25;1.50;;;;;;;;;;10477356;28;20040;-78
2022/09/25 00:35:20;;;;;;;1.90;1.60;;;;;;;;;;10487071;28;20041;-78
2022/09/25 00:40:23;;;;;;;2.38;1.60;;;;;;;;;;10524741;28;20047;-78
2022/09/25 00:45:27;;;;;;;2.03;1.40;;;;;;;;;;10501150;28;20565;-78
2022/09/25 00:50:36;;;;;;;2.25;1.80;;;;;;;;;;10524442;28;20040;-77
2022/09/25 00:55:43;;;;;;;2.60;1.67;;;;;;;;;;10469401;28;20312;-78
2022/09/25 01:00:46;;;;;;;2.63;1.45;;;;;;;;;;10502708;28;20416;-78
2022/09/25 01:05:59;;;;;;;;;;;;;;;;;;10472553;28;20049;-78
2022/09/25 01:11:02;;;;;;;4.50;1.55;;;;;;;;;;10520502;28;19920;-78
2022/09/25 01:16:13;;;;;;;1.90;1.52;;;;;;;;;;10512872;28;20876;-78
2022/09/25 01:21:27;;;;;;;2.05;1.50;;;;;;;;;;10525175;28;20036;-78
2022/09/25 01:26:58;;;;;;;1.10;1.00;;;;;;;;;;10518423;28;20039;-78
2022/09/25 01:32:09;;;;;;;2.70;1.48;;;;;;;;;;10517345;28;20044;-78
2022/09/25 01:37:21;;;;;;;3.33;1.35;;;;;;;;;;10508024;28;20044;-79
2022/09/25 01:42:30;;;;;;;3.47;1.33;;;;;;;;;;10508918;28;20039;-78
2022/09/25 01:47:37;;;;;;;3.92;1.48;;;;;;;;;;10507746;28;20062;-78
2022/09/25 01:52:44;;;;;;;1.92;1.65;;;;;;;;;;10508539;28;20040;-78
2022/09/25 01:57:49;;;;;;;;;;;;;;;;;;10521601;28;20052;-78
2022/09/25 02:02:56;;;;;;;1.70;1.20;;;;;;;;;;10499249;28;19924;-79
2022/09/25 02:08:03;;;;;;;1.33;1.13;;;;;;;;;;10507848;28;20036;-79
2022/09/25 02:13:12;;;;;;;9.00;1.33;;;;;;;;;;10504075;28;20157;-79
2022/09/25 02:23:50;;;;;;;2.80;1.13;;;;;;;;;;10459332;28;20555;-79
2022/09/25 02:28:54;;;;;;;1.20;1.10;;;;;;;;;;10486266;28;20542;-79
2022/09/25 02:33:59;;;;;;;2.22;1.52;;;;;;;;;;10507562;28;20032;-79
2022/09/25 02:39:05;;;;;;;2.67;1.75;;;;;;;;;;10522393;28;20527;-78
2022/09/25 02:44:16;;;;;;;2.47;1.57;;;;;;;;;;10491962;28;20066;-79
2022/09/25 02:49:29;;;;;;;3.33;1.83;;;;;;;;;;10521135;28;20042;-79
2022/09/25 02:54:39;;;;;;;4.18;2.53;;;;;;;;;;10519801;28;20040;-78
2022/09/25 02:59:49;;;;;;;6.32;3.05;;;;;;;;;;10505926;28;20151;-79
2022/09/25 03:04:55;;;;;;;5.82;3.72;;;;;;;;;;10464884;28;20044;-78
2022/09/25 03:09:59;;;;;;;4.28;2.85;;;;;;;;;;10457222;28;20048;-79
2022/09/25 03:15:02;;;;;;;6.82;3.58;;;;;;;;;;10486178;28;20447;-79
2022/09/25 03:20:08;;;;;;;5.40;3.20;;;;;;;;;;10520581;28;20040;-79
2022/09/25 03:25:12;;;;;;;5.32;2.83;;;;;;;;;;10511566;28;20048;-79
2022/09/25 03:30:15;;;;;;;4.43;3.08;;;;;;;;;;10492091;28;20044;-78
2022/09/25 03:35:20;;;;;;;4.53;3.22;;;;;;;;;;10484478;28;20036;-78
2022/09/25 03:40:23;;;;;;;5.38;3.25;;;;;;;;;;10485205;28;20532;-78
2022/09/25 03:45:26;;;;;;;3.92;2.97;;;;;;;;;;10501299;28;20067;-79
2022/09/25 03:50:31;;;;;;;4.85;3.17;;;;;;;;;;10459615;28;20039;-78
2022/09/25 03:55:34;;;;;;;3.97;2.75;;;;;;;;;;10514079;28;20037;-79
2022/09/25 04:00:38;;;;;;;4.20;2.72;;;;;;;;;;10504295;28;20547;-79
2022/09/25 04:05:45;;;;;;;4.20;2.58;;;;;;;;;;10528483;28;20067;-78
2022/09/25 04:10:48;;;;;;;4.53;2.70;;;;;;;;;;10512234;28;20047;-79
2022/09/25 04:15:51;;;;;;;3.30;2.75;;;;;;;;;;10512533;28;20044;-80
2022/09/25 04:20:56;;;;;;;3.70;2.70;;;;;;;;;;10499811;28;20071;-79
2022/09/25 04:25:59;;;;;;;3.90;2.65;;;;;;;;;;10486307;28;20028;-79
2022/09/25 04:31:03;;;;;;;2.83;2.08;;;;;;;;;;10509100;28;20076;-79
2022/09/25 04:36:08;;;;;;;1.52;1.25;;;;;;;;;;10501819;28;20029;-79
2022/09/25 04:41:11;;;;;;;1.10;1.00;;;;;;;;;;10495949;28;20384;-79
2022/09/25 04:46:16;;;;;;;1.27;1.10;;;;;;;;;;10485745;28;20043;-79
2022/09/25 04:51:24;;;;;;;2.00;1.80;;;;;;;;;;10497087;28;20040;-79
2022/09/25 04:56:28;;;;;;;1.83;1.67;;;;;;;;;;10483615;28;20036;-79
2022/09/25 05:01:31;;;;;;;1.55;1.35;;;;;;;;;;10510501;28;20044;-79
2022/09/25 05:06:36;;;;;;;1.85;1.40;;;;;;;;;;10491763;28;20036;-79
2022/09/25 05:11:39;;;;;;;1.95;1.45;;;;;;;;;;10493613;28;20502;-79
2022/09/25 05:16:42;;;;;;;2.33;1.67;;;;;;;;;;10501702;28;20445;-79
2022/09/25 05:21:47;;;;;;;2.13;1.73;;;;;;;;;;10507516;28;20044;-79
2022/09/25 05:26:50;;;;;;;2.22;1.67;;;;;;;;;;10482644;28;20044;-79
2022/09/25 05:31:55;;;;;;;2.65;2.17;;;;;;;;;;10481500;28;20067;-79
2022/09/25 05:36:59;;;;;;;2.88;2.28;;;;;;;;;;10505069;28;20408;-80
2022/09/25 05:42:03;;;;;;;3.28;2.45;;;;;;;;;;10482189;28;20053;-78
2022/09/25 05:47:07;;;;;;;2.28;1.73;;;;;;;;;;10484831;28;20040;-79
2022/09/25 05:52:12;;;;;;;2.17;1.75;;;;;;;;;;10484154;28;20048;-79
2022/09/25 05:57:15;;;;;;;2.60;2.15;;;;;;;;;;10464693;28;20054;-79
2022/09/25 06:02:18;;;;;;;3.83;2.60;;;;;;;;;;10481423;28;20032;-79
2022/09/25 06:07:23;;;;;;;2.47;2.05;;;;;;;;;;10507319;28;20746;-79
2022/09/25 06:12:28;;;;;;;3.25;2.10;;;;;;;;;;10467597;28;20524;-79
2022/09/25 06:17:31;;;;;;;2.77;2.10;;;;;;;;;;10482374;28;20397;-78
2022/09/25 06:22:37;;;;;;;3.15;2.33;;;;;;;;;;10480566;28;20509;-78
2022/09/25 06:27:40;;;;;;;4.20;2.70;;;;;;;;;;10470479;28;20459;-79
2022/09/25 06:32:43;;;;;;;4.25;2.65;;;;;;;;;;10493657;28;20128;-78
2022/09/25 06:37:48;;;;;;;3.83;2.97;;;;;;;;;;10478357;28;20048;-78
2022/09/25 06:42:55;;;;;;;3.95;2.83;;;;;;;;;;10503621;28;20140;-79
2022/09/25 06:48:01;;;;;;;3.65;2.90;;;;;;;;;;10470110;28;20048;-78
2022/09/25 06:53:06;;;;;;;3.20;2.63;;;;;;;;;;10473682;28;20589;-79
2022/09/25 06:58:12;;;;;;;3.20;2.55;;;;;;;;;;10444877;28;20956;-81
2022/09/25 07:08:38;;;;;;;4.80;3.63;;;;;;;;;;10473404;28;20044;-77
2022/09/25 07:13:41;;;;;;;4.35;3.30;;;;;;;;;;10456953;28;20041;-79
2022/09/25 07:18:45;;;;;;;6.03;4.10;;;;;;;;;;10490049;28;20411;-78
2022/09/25 07:23:51;;;;;;;6.28;4.35;;;;;;;;;;10509199;28;20650;-79
2022/09/25 07:28:56;;;;;;;6.70;4.60;;;;;;;;;;10485164;28;20063;-79
2022/09/25 07:34:07;;;;;;;5.70;3.88;;;;;;;;;;10458645;28;20045;-78
2022/09/25 07:39:12;;;;;;;5.10;4.22;;;;;;;;;;10474109;28;20535;-78
2022/09/25 07:44:21;;;;;;;5.97;3.92;;;;;;;;;;10495013;28;20676;-79
2022/09/25 07:49:35;;;;;;;6.50;4.43;;;;;;;;;;10461551;28;20683;-78
2022/09/25 07:54:41;;;;;;;7.05;4.32;;;;;;;;;;10501804;28;20053;-79
2022/09/25 07:59:45;;;;;;;;;;;;;;;;;;10472447;28;20044;-78
2022/09/25 08:04:48;;;;;;;5.35;3.65;;;;;;;;;;10470174;28;20568;-78
2022/09/25 08:09:53;;;;;;;6.07;4.38;;;;;;;;;;10490619;28;20049;-79
2022/09/25 08:14:56;;;;;;;5.22;4.50;;;;;;;;;;10505323;28;20044;-78
2022/09/25 08:20:00;;;;;;;5.53;4.05;;;;;;;;;;10493236;28;20048;-79
2022/09/25 08:25:07;;;;;;;5.32;3.88;;;;;;;;;;10498080;28;20046;-79
2022/09/25 08:30:12;;;;;;;4.85;3.55;;;;;;;;;;10467799;28;20045;-78
2022/09/25 08:35:16;;;;;;;5.45;3.72;;;;;;;;;;10486098;28;20064;-78
2022/09/25 08:40:25;;;;;;;5.18;3.75;;;;;;;;;;10489711;28;20404;-79
2022/09/25 08:50:55;;;;;;;4.30;3.33;;;;;;;;;;10498216;28;20048;-79
2022/09/25 08:56:16;;;;;;;3.85;3.00;;;;;;;;;;10493523;28;20040;-80
2022/09/25 09:01:24;;;;;;;3.55;2.80;;;;;;;;;;10490116;28;20742;-79
2022/09/25 09:06:29;;;;;;;2.95;2.58;;;;;;;;;;10500917;28;20029;-79
2022/09/25 09:11:36;;;;;;;4.10;2.85;;;;;;;;;;10474163;28;20036;-80
2022/09/25 09:16:43;;;;;;;4.22;2.85;;;;;;;;;;10502104;28;20060;-80
2022/09/25 09:21:54;;;;;;;3.08;2.45;;;;;;;;;;10484004;28;20060;-79
2022/09/25 09:27:20;;;;;;;3.17;2.40;;;;;;;;;;10478523;28;20048;-79
2022/09/25 09:32:40;;;;;;;4.03;2.50;;;;;;;;;;10528462;28;20530;-79
2022/09/25 09:37:58;;;;;;;5.13;3.15;;;;;;;;;;10519227;28;20078;-80
2022/09/25 09:43:11;;;;;;;5.13;3.70;;;;;;;;;;10487615;28;20531;-80
2022/09/25 09:48:19;;;;;;;2.53;2.22;;;;;;;;;;10498276;28;20043;-80
2022/09/25 09:53:30;;;;;;;3.47;2.38;;;;;;;;;;10467725;28;20043;-81
2022/09/25 09:58:44;;;;;;;2.05;1.67;;;;;;;;;;10467013;28;20079;-80
2022/09/25 10:03:51;;;;;;;1.67;1.48;;;;;;;;;;10468320;28;20519;-80
2022/09/25 10:08:54;;;;;;;2.08;1.45;;;;;;;;;;10456634;28;20136;-80
2022/09/25 10:14:03;;;;;;;2.20;1.48;;;;;;;;;;10475240;28;20124;-80
2022/09/25 10:19:10;;;;;;;2.42;1.70;;;;;;;;;;10505117;28;20028;-79
2022/09/25 10:24:50;;;;;;;2.05;1.50;;;;;;;;;;10503773;28;20043;-79
2022/09/25 10:30:03;;;;;;;2.03;1.52;;;;;;;;;;10485084;28;20048;-79
2022/09/25 10:35:14;;;;;;;2.35;1.50;;;;;;;;;;10487940;28;20041;-79
2022/09/25 10:40:26;;;;;;;2.15;1.42;;;;;;;;;;10451705;28;20454;-79
2022/09/25 10:45:31;;;;;;;1.65;1.33;;;;;;;;;;10429803;28;20040;-79
2022/09/25 10:50:35;;;;;;;3.28;1.48;;;;;;;;;;10420889;28;20506;-80
2022/09/25 10:55:45;;;;;;;1.45;1.10;;;;;;;;;;10441985;28;20055;-79
2022/09/25 11:00:54;;;;;;;2.15;1.45;;;;;;;;;;10439356;28;20048;-80
2022/09/25 11:06:00;;;;;;;1.42;1.30;;;;;;;;;;10454137;28;20127;-79
2022/09/25 11:11:08;;;;;;;1.80;1.60;;;;;;;;;;10441855;28;20038;-79
2022/09/25 11:16:11;;;;;;;1.73;1.38;;;;;;;;;;10454978;28;20691;-79
2022/09/25 11:21:25;;;;;;;2.67;1.35;;;;;;;;;;10468784;28;20041;-79
2022/09/25 11:26:36;;;;;;;1.80;1.60;;;;;;;;;;10420634;28;20052;-79
2022/09/25 11:31:43;;;;;;;3.25;2.22;;;;;;;;;;10428052;28;20589;-79
2022/09/25 11:36:50;;;;;;;1.95;1.13;;;;;;;;;;10480745;28;20496;-79
2022/09/25 11:42:00;;;;;;;2.75;1.35;;;;;;;;;;10491248;28;20044;-79
2022/09/25 11:47:11;;;;;;;2.90;1.33;;;;;;;;;;10418506;28;20056;-79
2022/09/25 11:52:36;;;;;;;2.83;1.55;;;;;;;;;;10451142;28;20410;-79
2022/09/25 11:57:49;;;;;;;2.67;1.10;;;;;;;;;;10486872;28;20435;-79
2022/09/25 12:03:12;;;;;;;1.73;1.17;;;;;;;;;;10489460;28;20048;-79
2022/09/25 12:08:36;;;;;;;1.60;1.20;;;;;;;;;;10494259;28;20037;-79
2022/09/25 12:13:48;;;;;;;2.25;0.90;;;;;;;;;;10512870;28;20058;-78
2022/09/25 12:19:08;;;;;;;2.75;1.23;;;;;;;;;;10461443;28;20039;-79
2022/09/25 12:24:22;;;;;;;1.58;0.73;;;;;;;;;;10480168;28;20041;-79
2022/09/25 12:29:41;;;;;;;1.98;1.00;;;;;;;;;;10466377;28;20040;-77
2022/09/25 12:35:06;;;;;;;1.85;0.93;;;;;;;;;;10470946;28;20048;-77
2022/09/25 12:40:18;;;;;;;3.60;1.30;;;;;;;;;;10494416;28;20485;-79
2022/09/25 12:45:30;;;;;;;1.70;0.70;;;;;;;;;;10504980;28;20130;-79
2022/09/25 12:50:38;;;;;;;3.38;0.95;;;;;;;;;;10470534;28;20048;-78
2022/09/25 12:55:45;;;;;;;2.22;1.10;;;;;;;;;;10500550;28;20055;-77
2022/09/25 13:00:56;;;;;;;1.27;0.70;;;;;;;;;;10497259;28;20028;-78
2022/09/25 13:06:07;;;;;;;3.75;0.70;;;;;;;;;;10527176;28;20048;-78
2022/09/25 13:11:16;;;;;;;1.20;0.65;;;;;;;;;;10515973;28;20527;-78
2022/09/25 13:16:21;;;;;;;4.05;0.80;;;;;;;;;;10490822;28;20501;-78
2022/09/25 13:21:29;;;;;;;1.98;0.65;;;;;;;;;;10507095;28;20073;-78
2022/09/25 13:26:41;;;;;;;2.53;0.90;;;;;;;;;;10516590;28;20042;-78
2022/09/25 13:31:46;;;;;;;1.75;0.68;;;;;;;;;;10449349;28;20572;-78
2022/09/25 13:36:51;;;;;;;6.30;1.47;;;;;;;;;;10520788;28;20059;-79
2022/09/25 13:41:58;;;;;;;1.45;0.70;;;;;;;;;;10511255;28;20041;-78
2022/09/25 13:47:43;;;;;;;1.70;0.50;;;;;;;;;;10491980;28;20136;-78
2022/09/25 13:58:20;;;;;;;1.17;0.55;;;;;;;;;;10512605;28;20631;-79
2022/09/25 14:03:36;;;;;;;3.67;0.70;;;;;;;;;;10462263;28;20416;-79
2022/09/25 14:08:44;;;;;;;2.50;0.90;;;;;;;;;;10493052;28;20507;-79
2022/09/25 14:13:49;;;;;;;1.75;0.77;;;;;;;;;;10486128;28;20071;-78
2022/09/25 14:18:56;;;;;;;2.67;0.60;;;;;;;;;;10485779;28;20050;-79
2022/09/25 14:24:18;;;;;;;3.42;0.70;;;;;;;;;;10495374;28;20211;-79
2022/09/25 14:29:24;;;;;;;2.72;0.73;;;;;;;;;;10493553;28;20058;-79
2022/09/25 14:34:54;;;;;;;1.30;0.40;;;;;;;;;;10508714;28;20043;-79
2022/09/25 14:40:04;;;;;;;3.00;0.93;;;;;;;;;;10470969;28;20297;-79
2022/09/25 14:45:33;;;;;;;0.77;0.40;;;;;;;;;;10498626;28;20048;-79
2022/09/25 14:50:42;;;;;;;2.13;0.63;;;;;;;;;;10445153;28;20052;-79
2022/09/25 14:55:49;;;;;;;2.92;0.98;;;;;;;;;;10474353;28;20118;-79
2022/09/25 15:00:55;;;;;;;2.88;1.15;;;;;;;;;;10505201;28;20062;-79
2022/09/25 15:06:01;;;;;;;4.63;1.07;;;;;;;;;;10506682;28;20673;-78
2022/09/25 15:11:11;;;;;;;3.30;0.80;;;;;;;;;;10468416;28;20040;-78
2022/09/25 15:21:42;;;;;;;4.47;0.98;;;;;;;;;;10476635;28;20487;-79
2022/09/25 15:26:49;;;;;;;3.42;0.80;;;;;;;;;;10501337;28;20051;-78
2022/09/25 15:31:54;;;;;;;3.28;1.20;;;;;;;;;;10482386;28;20673;-78
2022/09/25 15:37:17;;;;;;;3.95;1.13;;;;;;;;;;10491301;28;20040;-78
2022/09/25 15:42:21;;;;;;;3.88;1.00;;;;;;;;;;10493925;28;20041;-78
2022/09/25 15:47:48;;;;;;;4.07;1.13;;;;;;;;;;10502605;28;20037;-79
2022/09/25 15:52:55;;;;;;;3.90;1.40;;;;;;;;;;10502522;28;20407;-78
2022/09/25 15:58:06;;;;;;;2.25;1.00;;;;;;;;;;10500231;28;20058;-78
2022/09/25 16:08:38;;;;;;;4.07;1.50;;;;;;;;;;10493957;28;20048;-78
2022/09/25 16:13:45;;;;;;;2.25;1.30;;;;;;;;;;10514900;28;20607;-78
2022/09/25 16:18:48;;;;;;;1.80;1.25;;;;;;;;;;10503225;28;20087;-78
2022/09/25 16:23:55;;;;;;;0.98;0.60;;;;;;;;;;10495481;28;20036;-80
2022/09/25 16:29:08;;;;;;;2.28;0.85;;;;;;;;;;10474678;28;20044;-78
2022/09/25 16:34:22;;;;;;;1.77;0.80;;;;;;;;;;10512055;28;20071;-81
2022/09/25 16:39:33;;;;;;;2.40;1.00;;;;;;;;;;10503340;28;20427;-79
2022/09/25 16:44:45;;;;;;;2.13;1.00;;;;;;;;;;10508804;28;20503;-80
2022/09/25 16:49:49;;;;;;;5.45;1.20;;;;;;;;;;10472865;28;20045;-80
2022/09/25 16:54:55;;;;;;;2.65;1.48;;;;;;;;;;10516649;28;20068;-79
2022/09/25 16:59:58;;;;;;;;;;;;;;;;;;10472766;28;20066;-80
2022/09/25 17:05:06;;;;;;;3.43;1.27;;;;;;;;;;10505518;28;19924;-77
2022/09/25 17:10:15;;;;;;;2.67;1.65;;;;;;;;;;10506778;28;20515;-81
2022/09/25 17:15:22;;;;;;;3.17;1.63;;;;;;;;;;10486877;28;20033;-80
2022/09/25 17:20:28;;;;;;;5.00;1.83;;;;;;;;;;10460889;28;20055;-79
2022/09/25 17:25:40;;;;;;;2.03;1.30;;;;;;;;;;10495435;28;20055;-78
2022/09/25 17:30:44;;;;;;;1.80;1.13;;;;;;;;;;10479361;28;20114;-80
2022/09/25 17:35:51;;;;;;;3.22;1.60;;;;;;;;;;10473497;28;20458;-78
2022/09/25 17:40:56;;;;;;;2.40;1.35;;;;;;;;;;10485673;28;20043;-78
2022/09/25 17:46:03;;;;;;;2.03;1.33;;;;;;;;;;10491617;28;20126;-78
2022/09/25 17:51:14;;;;;;;6.18;1.77;;;;;;;;;;10487537;28;20041;-78
2022/09/25 17:56:20;;;;;;;2.97;1.42;;;;;;;;;;10488226;28;20041;-80
2022/09/25 18:01:28;;;;;;;2.45;1.60;;;;;;;;;;10488334;28;20584;-78
2022/09/25 18:06:37;;;;;;;2.35;1.60;;;;;;;;;;10462558;28;20032;-79
2022/09/25 18:11:42;;;;;;;2.83;1.50;;;;;;;;;;10489489;28;20045;-77
2022/09/25 18:16:48;;;;;;;4.88;2.28;;;;;;;;;;10482777;28;20056;-80
2022/09/25 18:27:16;;;;;;;3.72;2.00;;;;;;;;;;10497303;28;20043;-80
2022/09/25 18:32:19;;;;;;;6.32;3.45;;;;;;;;;;10459792;28;20044;-80
2022/09/25 18:37:23;;;;;;;6.70;3.47;;;;;;;;;;10492976;28;20516;-80
2022/09/25 18:42:27;;;;;;;5.53;3.42;;;;;;;;;;10496770;28;20056;-81
2022/09/25 18:47:31;;;;;;;5.70;2.95;;;;;;;;;;10490073;28;20242;-77
2022/09/25 18:52:35;;;;;;;5.57;2.88;;;;;;;;;;10498797;28;20044;-79
2022/09/25 18:57:39;;;;;;;8.13;3.47;;;;;;;;;;10514793;28;20040;-82
2022/09/25 19:02:43;;;;;;;4.95;3.08;;;;;;;;;;10505350;28;20051;-84
2022/09/25 19:07:47;;;;;;;6.82;4.18;;;;;;;;;;10488971;28;20044;-79
2022/09/25 19:12:57;;;;;;;5.30;3.63;;;;;;;;;;10489779;28;20135;-79
2022/09/25 19:18:01;;;;;;;6.38;3.67;;;;;;;;;;10517169;28;20040;-79
2022/09/25 19:23:04;;;;;;;5.30;3.90;;;;;;;;;;10503980;28;20090;-78
2022/09/25 19:28:09;;;;;;;5.80;3.50;;;;;;;;;;10474915;28;20399;-77
2022/09/25 19:33:12;;;;;;;3.60;1.90;;;;;;;;;;10507640;28;20074;-80
2022/09/25 19:38:16;;;;;;;2.55;1.65;;;;;;;;;;10509413;28;20040;-79
2022/09/25 19:43:21;;;;;;;3.40;1.90;;;;;;;;;;10525378;28;20500;-80
2022/09/25 19:48:25;;;;;;;2.65;1.92;;;;;;;;;;10485201;28;20716;-79
2022/09/25 19:53:28;;;;;;;2.83;1.85;;;;;;;;;;10499680;28;20420;-80
2022/09/25 19:58:34;;;;;;;5.05;2.22;;;;;;;;;;10467087;28;20094;-79
2022/09/25 20:03:38;;;;;;;4.38;2.90;;;;;;;;;;10508384;28;20097;-80
2022/09/25 20:08:44;;;;;;;4.85;3.25;;;;;;;;;;10508310;28;20071;-80
2022/09/25 20:13:50;;;;;;;8.73;3.58;;;;;;;;;;10495006;28;20048;-78
2022/09/25 20:18:56;;;;;;;3.53;2.35;;;;;;;;;;10504404;28;20098;-78
2022/09/25 20:24:00;;;;;;;;;;;;;;;;;;10500815;28;20037;-79
2022/09/25 20:29:07;;;;;;;3.60;2.47;;;;;;;;;;10504553;28;19920;-78
2022/09/25 20:34:12;;;;;;;5.13;2.33;;;;;;;;;;10464295;28;20045;-78
2022/09/25 20:39:19;;;;;;;7.10;2.67;;;;;;;;;;10506019;28;20037;-78
2022/09/25 20:44:24;;;;;;;6.35;3.08;;;;;;;;;;10505506;28;20267;-78
2022/09/25 20:49:29;;;;;;;4.85;2.90;;;;;;;;;;10496813;28;20142;-79
2022/09/25 20:54:33;;;;;;;5.18;2.70;;;;;;;;;;10483674;28;20054;-78
2022/09/25 20:59:38;;;;;;;7.72;3.65;;;;;;;;;;10511016;28;20554;-79
2022/09/25 21:04:43;;;;;;;6.90;3.30;;;;;;;;;;10492890;28;20115;-77
2022/09/25 21:09:47;;;;;;;4.30;2.17;;;;;;;;;;10523142;28;20051;-78
2022/09/25 21:14:51;;;;;;;5.72;2.53;;;;;;;;;;10479394;28;20566;-79
2022/09/25 21:19:55;;;;;;;6.47;3.25;;;;;;;;;;10498425;28;20117;-79
2022/09/25 21:24:59;;;;;;;7.70;4.18;;;;;;;;;;10514838;28;20110;-77
2022/09/25 21:30:05;;;;;;;8.57;4.03;;;;;;;;;;10478332;28;20040;-78
2022/09/25 21:35:10;;;;;;;6.43;2.77;;;;;;;;;;10454130;28;20036;-79
2022/09/25 21:40:13;;;;;;;4.53;2.40;;;;;;;;;;10479177;28;20042;-78
2022/09/25 21:45:18;;;;;;;3.45;1.80;;;;;;;;;;10491632;28;20164;-78
2022/09/25 21:50:23;;;;;;;3.72;2.33;;;;;;;;;;10459830;28;20044;-79
2022/09/25 21:55:27;;;;;;;4.45;2.03;;;;;;;;;;10466873;28;20504;-78
2022/09/25 22:00:32;;;;;;;4.50;2.03;;;;;;;;;;10500282;28;20043;-81
2022/09/25 22:05:35;;;;;;;4.30;2.17;;;;;;;;;;10482893;28;20131;-80
2022/09/25 22:10:39;;;;;;;4.70;1.95;;;;;;;;;;10491486;28;20127;-84
2022/09/25 22:15:43;;;;;;;3.53;2.05;;;;;;;;;;10499540;28;20068;-78
2022/09/25 22:20:47;;;;;;;4.18;2.15;;;;;;;;;;10474119;28;20041;-82
2022/09/25 22:25:51;;;;;;;3.92;2.00;;;;;;;;;;10509364;28;20041;-79
2022/09/25 22:30:55;;;;;;;2.60;1.40;;;;;;;;;;10481535;28;20042;-79
2022/09/25 22:36:00;;;;;;;2.22;1.50;;;;;;;;;;10516882;28;20045;-78
2022/09/25 22:41:05;;;;;;;1.50;1.23;;;;;;;;;;10463187;28;20040;-79
2022/09/25 22:46:11;;;;;;;1.92;1.20;;;;;;;;;;10521920;28;20036;-80
2022/09/25 22:51:17;;;;;;;2.35;1.20;;;;;;;;;;10488223;28;20059;-83
2022/09/25 22:56:22;;;;;;;1.15;0.95;;;;;;;;;;10479493;28;20032;-78
2022/09/25 23:06:56;;;;;;;1.88;0.90;;;;;;;;;;10478926;28;20139;-82
2022/09/25 23:12:00;;;;;;;1.83;1.17;;;;;;;;;;10468602;28;20056;-80
2022/09/25 23:17:07;;;;;;;1.23;1.00;;;;;;;;;;10476045;28;20672;-79
2022/09/25 23:22:11;;;;;;;1.83;1.00;;;;;;;;;;10491013;28;20081;-84
2022/09/25 23:27:19;;;;;;;1.58;1.10;;;;;;;;;;10494659;28;20068;-79
2022/09/25 23:32:24;;;;;;;1.77;1.08;;;;;;;;;;10518881;28;20050;-79
2022/09/25 23:37:28;;;;;;;3.03;1.45;;;;;;;;;;10479106;28;20056;-80
2022/09/25 23:42:31;;;;;;;4.15;1.85;;;;;;;;;;10495041;28;20050;-79
2022/09/25 23:47:36;;;;;;;2.53;1.00;;;;;;;;;;10468974;28;20123;-79
2022/09/25 23:52:40;;;;;;;2.53;1.20;;;;;;;;;;10478149;28;20107;-80
2022/09/25 23:57:43;;;;;;;1.35;1.08;;;;;;;;;;10459661;28;20047;-81
